sensor_id;sensor_type;location;lat;lon;timestamp;P1;durP1;ratioP1;P2;durP2;ratioP2
68176;SDS011;56478;50.982;7.032;2024-03-29T00:01:44;3.53;;;1.80;;
68176;SDS011;56478;50.982;7.032;2024-03-29T00:04:09;3.22;;;1.80;;
68176;SDS011;56478;50.982;7.032;2024-03-29T00:06:35;1.83;;;1.25;;
68176;SDS011;56478;50.982;7.032;2024-03-29T00:09:00;2.13;;;1.40;;
68176;SDS011;56478;50.982;7.032;2024-03-29T00:11:27;3.15;;;1.45;;
68176;SDS011;56478;50.982;7.032;2024-03-29T00:13:52;3.08;;;1.60;;
68176;SDS011;56478;50.982;7.032;2024-03-29T00:16:18;1.30;;;1.20;;
68176;SDS011;56478;50.982;7.032;2024-03-29T00:18:44;1.73;;;1.27;;
68176;SDS011;56478;50.982;7.032;2024-03-29T00:21:09;3.47;;;1.35;;
68176;SDS011;56478;50.982;7.032;2024-03-29T00:23:35;2.90;;;1.27;;
68176;SDS011;56478;50.982;7.032;2024-03-29T00:26:00;1.88;;;1.30;;
68176;SDS011;56478;50.982;7.032;2024-03-29T00:28:26;2.67;;;1.30;;
68176;SDS011;56478;50.982;7.032;2024-03-29T00:30:52;1.80;;;1.25;;
68176;SDS011;56478;50.982;7.032;2024-03-29T00:33:17;1.85;;;1.38;;
68176;SDS011;56478;50.982;7.032;2024-03-29T00:35:43;1.38;;;1.02;;
68176;SDS011;56478;50.982;7.032;2024-03-29T00:38:09;2.75;;;1.23;;
68176;SDS011;56478;50.982;7.032;2024-03-29T00:40:37;3.75;;;1.20;;
68176;SDS011;56478;50.982;7.032;2024-03-29T00:43:03;1.75;;;1.00;;
68176;SDS011;56478;50.982;7.032;2024-03-29T00:45:29;1.90;;;1.20;;
68176;SDS011;56478;50.982;7.032;2024-03-29T00:47:54;3.17;;;1.25;;
68176;SDS011;56478;50.982;7.032;2024-03-29T00:50:20;3.05;;;1.15;;
68176;SDS011;56478;50.982;7.032;2024-03-29T00:52:46;1.75;;;1.20;;
68176;SDS011;56478;50.982;7.032;2024-03-29T00:55:13;1.63;;;1.00;;
68176;SDS011;56478;50.982;7.032;2024-03-29T00:57:39;2.55;;;1.30;;
68176;SDS011;56478;50.982;7.032;2024-03-29T01:00:05;2.65;;;1.30;;
68176;SDS011;56478;50.982;7.032;2024-03-29T01:02:31;3.65;;;1.40;;
68176;SDS011;56478;50.982;7.032;2024-03-29T01:04:56;1.77;;;1.65;;
68176;SDS011;56478;50.982;7.032;2024-03-29T01:07:22;2.47;;;2.10;;
68176;SDS011;56478;50.982;7.032;2024-03-29T01:09:48;1.73;;;1.40;;
68176;SDS011;56478;50.982;7.032;2024-03-29T01:12:13;2.38;;;1.55;;
68176;SDS011;56478;50.982;7.032;2024-03-29T01:14:39;2.42;;;1.50;;
68176;SDS011;56478;50.982;7.032;2024-03-29T01:17:05;1.20;;;1.10;;
68176;SDS011;56478;50.982;7.032;2024-03-29T01:19:32;1.58;;;1.10;;
68176;SDS011;56478;50.982;7.032;2024-03-29T01:21:57;2.28;;;1.17;;
68176;SDS011;56478;50.982;7.032;2024-03-29T01:24:23;1.55;;;1.45;;
68176;SDS011;56478;50.982;7.032;2024-03-29T01:26:49;3.45;;;1.30;;
68176;SDS011;56478;50.982;7.032;2024-03-29T01:29:14;3.58;;;0.90;;
68176;SDS011;56478;50.982;7.032;2024-03-29T01:31:40;8.13;;;1.30;;
68176;SDS011;56478;50.982;7.032;2024-03-29T01:34:06;2.05;;;1.20;;
68176;SDS011;56478;50.982;7.032;2024-03-29T01:36:31;1.30;;;1.20;;
68176;SDS011;56478;50.982;7.032;2024-03-29T01:38:57;2.80;;;1.52;;
68176;SDS011;56478;50.982;7.032;2024-03-29T01:41:26;3.35;;;1.17;;
68176;SDS011;56478;50.982;7.032;2024-03-29T01:43:52;3.17;;;1.33;;
68176;SDS011;56478;50.982;7.032;2024-03-29T01:46:22;3.33;;;1.33;;
68176;SDS011;56478;50.982;7.032;2024-03-29T01:48:52;1.55;;;1.05;;
68176;SDS011;56478;50.982;7.032;2024-03-29T01:51:19;2.35;;;1.30;;
68176;SDS011;56478;50.982;7.032;2024-03-29T01:53:50;2.28;;;1.27;;
68176;SDS011;56478;50.982;7.032;2024-03-29T01:58:45;2.58;;;1.20;;
68176;SDS011;56478;50.982;7.032;2024-03-29T02:01:11;2.45;;;1.17;;
68176;SDS011;56478;50.982;7.032;2024-03-29T02:03:37;2.42;;;1.20;;
68176;SDS011;56478;50.982;7.032;2024-03-29T02:06:02;2.38;;;1.10;;
68176;SDS011;56478;50.982;7.032;2024-03-29T02:08:30;1.20;;;0.88;;
68176;SDS011;56478;50.982;7.032;2024-03-29T02:10:56;2.30;;;1.40;;
68176;SDS011;56478;50.982;7.032;2024-03-29T02:13:23;1.58;;;1.20;;
68176;SDS011;56478;50.982;7.032;2024-03-29T02:15:48;3.58;;;1.10;;
68176;SDS011;56478;50.982;7.032;2024-03-29T02:18:14;2.50;;;1.20;;
68176;SDS011;56478;50.982;7.032;2024-03-29T02:20:39;2.85;;;1.40;;
68176;SDS011;56478;50.982;7.032;2024-03-29T02:23:13;1.25;;;1.15;;
68176;SDS011;56478;50.982;7.032;2024-03-29T02:25:41;1.88;;;1.25;;
68176;SDS011;56478;50.982;7.032;2024-03-29T02:28:07;1.55;;;1.23;;
68176;SDS011;56478;50.982;7.032;2024-03-29T02:30:33;1.33;;;1.15;;
68176;SDS011;56478;50.982;7.032;2024-03-29T02:32:59;3.55;;;1.40;;
68176;SDS011;56478;50.982;7.032;2024-03-29T02:35:25;3.22;;;1.50;;
68176;SDS011;56478;50.982;7.032;2024-03-29T02:37:51;2.90;;;1.70;;
68176;SDS011;56478;50.982;7.032;2024-03-29T02:40:17;2.83;;;1.52;;
68176;SDS011;56478;50.982;7.032;2024-03-29T02:42:43;2.22;;;1.30;;
68176;SDS011;56478;50.982;7.032;2024-03-29T02:45:08;2.42;;;1.20;;
68176;SDS011;56478;50.982;7.032;2024-03-29T02:47:34;1.58;;;1.30;;
68176;SDS011;56478;50.982;7.032;2024-03-29T02:50:00;4.13;;;1.25;;
68176;SDS011;56478;50.982;7.032;2024-03-29T02:52:26;4.20;;;1.30;;
68176;SDS011;56478;50.982;7.032;2024-03-29T02:54:51;1.73;;;1.27;;
68176;SDS011;56478;50.982;7.032;2024-03-29T02:57:17;2.70;;;1.20;;
68176;SDS011;56478;50.982;7.032;2024-03-29T02:59:42;1.05;;;1.00;;
68176;SDS011;56478;50.982;7.032;2024-03-29T03:02:08;1.70;;;1.00;;
68176;SDS011;56478;50.982;7.032;2024-03-29T03:04:34;2.85;;;1.30;;
68176;SDS011;56478;50.982;7.032;2024-03-29T03:07:00;1.95;;;1.20;;
68176;SDS011;56478;50.982;7.032;2024-03-29T03:09:45;1.33;;;0.98;;
68176;SDS011;56478;50.982;7.032;2024-03-29T03:12:30;1.85;;;1.20;;
68176;SDS011;56478;50.982;7.032;2024-03-29T03:14:56;3.13;;;1.30;;
68176;SDS011;56478;50.982;7.032;2024-03-29T03:17:25;1.52;;;1.23;;
68176;SDS011;56478;50.982;7.032;2024-03-29T03:19:52;2.90;;;1.42;;
68176;SDS011;56478;50.982;7.032;2024-03-29T03:22:17;1.20;;;1.10;;
68176;SDS011;56478;50.982;7.032;2024-03-29T03:24:43;1.10;;;0.93;;
68176;SDS011;56478;50.982;7.032;2024-03-29T03:27:09;1.67;;;1.20;;
68176;SDS011;56478;50.982;7.032;2024-03-29T03:29:34;0.77;;;0.77;;
68176;SDS011;56478;50.982;7.032;2024-03-29T03:32:00;1.45;;;0.90;;
68176;SDS011;56478;50.982;7.032;2024-03-29T03:34:25;1.90;;;1.13;;
68176;SDS011;56478;50.982;7.032;2024-03-29T03:36:51;1.42;;;1.25;;
68176;SDS011;56478;50.982;7.032;2024-03-29T03:39:17;1.08;;;1.02;;
68176;SDS011;56478;50.982;7.032;2024-03-29T03:41:42;1.63;;;1.20;;
68176;SDS011;56478;50.982;7.032;2024-03-29T03:44:08;2.22;;;1.20;;
68176;SDS011;56478;50.982;7.032;2024-03-29T03:46:33;2.47;;;1.13;;
68176;SDS011;56478;50.982;7.032;2024-03-29T03:48:59;3.00;;;1.20;;
68176;SDS011;56478;50.982;7.032;2024-03-29T03:51:24;3.35;;;1.30;;
68176;SDS011;56478;50.982;7.032;2024-03-29T03:53:50;1.30;;;1.20;;
68176;SDS011;56478;50.982;7.032;2024-03-29T03:56:16;1.33;;;1.05;;
68176;SDS011;56478;50.982;7.032;2024-03-29T03:58:43;2.42;;;1.00;;
68176;SDS011;56478;50.982;7.032;2024-03-29T04:01:09;1.80;;;1.30;;
68176;SDS011;56478;50.982;7.032;2024-03-29T04:03:35;2.88;;;1.30;;
68176;SDS011;56478;50.982;7.032;2024-03-29T04:06:03;1.85;;;1.10;;
68176;SDS011;56478;50.982;7.032;2024-03-29T04:08:29;1.35;;;1.15;;
68176;SDS011;56478;50.982;7.032;2024-03-29T04:10:54;2.13;;;1.23;;
68176;SDS011;56478;50.982;7.032;2024-03-29T04:13:20;1.58;;;1.02;;
68176;SDS011;56478;50.982;7.032;2024-03-29T04:15:46;2.35;;;1.45;;
68176;SDS011;56478;50.982;7.032;2024-03-29T04:18:11;1.52;;;1.20;;
68176;SDS011;56478;50.982;7.032;2024-03-29T04:20:37;4.25;;;1.20;;
68176;SDS011;56478;50.982;7.032;2024-03-29T04:23:06;2.70;;;1.50;;
68176;SDS011;56478;50.982;7.032;2024-03-29T04:25:32;1.95;;;1.10;;
68176;SDS011;56478;50.982;7.032;2024-03-29T04:28:00;1.65;;;1.10;;
68176;SDS011;56478;50.982;7.032;2024-03-29T04:30:26;1.70;;;1.05;;
68176;SDS011;56478;50.982;7.032;2024-03-29T04:32:51;2.35;;;1.02;;
68176;SDS011;56478;50.982;7.032;2024-03-29T04:35:17;1.95;;;1.10;;
68176;SDS011;56478;50.982;7.032;2024-03-29T04:37:43;1.85;;;1.30;;
68176;SDS011;56478;50.982;7.032;2024-03-29T04:40:08;2.40;;;1.10;;
68176;SDS011;56478;50.982;7.032;2024-03-29T04:42:34;2.15;;;1.20;;
68176;SDS011;56478;50.982;7.032;2024-03-29T04:45:00;2.10;;;1.33;;
68176;SDS011;56478;50.982;7.032;2024-03-29T04:47:26;4.78;;;1.20;;
68176;SDS011;56478;50.982;7.032;2024-03-29T04:49:51;1.60;;;1.23;;
68176;SDS011;56478;50.982;7.032;2024-03-29T04:52:17;1.52;;;1.30;;
68176;SDS011;56478;50.982;7.032;2024-03-29T04:54:43;2.70;;;1.10;;
68176;SDS011;56478;50.982;7.032;2024-03-29T04:57:09;2.33;;;1.38;;
68176;SDS011;56478;50.982;7.032;2024-03-29T04:59:35;3.55;;;1.30;;
68176;SDS011;56478;50.982;7.032;2024-03-29T05:02:00;2.83;;;1.20;;
68176;SDS011;56478;50.982;7.032;2024-03-29T05:04:26;1.38;;;1.27;;
68176;SDS011;56478;50.982;7.032;2024-03-29T05:06:53;6.07;;;1.40;;
68176;SDS011;56478;50.982;7.032;2024-03-29T05:09:20;2.25;;;1.30;;
68176;SDS011;56478;50.982;7.032;2024-03-29T05:11:45;1.92;;;1.17;;
68176;SDS011;56478;50.982;7.032;2024-03-29T05:14:15;1.63;;;1.30;;
68176;SDS011;56478;50.982;7.032;2024-03-29T05:16:44;3.58;;;1.25;;
68176;SDS011;56478;50.982;7.032;2024-03-29T05:19:11;1.95;;;1.38;;
68176;SDS011;56478;50.982;7.032;2024-03-29T05:21:37;3.67;;;1.45;;
68176;SDS011;56478;50.982;7.032;2024-03-29T05:24:03;1.33;;;1.23;;
68176;SDS011;56478;50.982;7.032;2024-03-29T05:26:29;2.50;;;1.30;;
68176;SDS011;56478;50.982;7.032;2024-03-29T05:28:56;3.60;;;1.40;;
68176;SDS011;56478;50.982;7.032;2024-03-29T05:31:23;2.83;;;1.60;;
68176;SDS011;56478;50.982;7.032;2024-03-29T05:33:50;1.75;;;1.40;;
68176;SDS011;56478;50.982;7.032;2024-03-29T05:36:15;3.22;;;1.70;;
68176;SDS011;56478;50.982;7.032;2024-03-29T05:38:41;1.35;;;1.23;;
68176;SDS011;56478;50.982;7.032;2024-03-29T05:41:07;1.40;;;1.30;;
68176;SDS011;56478;50.982;7.032;2024-03-29T05:43:33;3.72;;;1.50;;
68176;SDS011;56478;50.982;7.032;2024-03-29T05:45:58;1.40;;;1.27;;
68176;SDS011;56478;50.982;7.032;2024-03-29T05:48:26;3.08;;;1.40;;
68176;SDS011;56478;50.982;7.032;2024-03-29T05:50:52;1.90;;;1.30;;
68176;SDS011;56478;50.982;7.032;2024-03-29T05:53:18;1.13;;;1.13;;
68176;SDS011;56478;50.982;7.032;2024-03-29T05:55:43;2.40;;;1.50;;
68176;SDS011;56478;50.982;7.032;2024-03-29T05:58:09;5.70;;;1.40;;
68176;SDS011;56478;50.982;7.032;2024-03-29T06:00:34;1.50;;;1.40;;
68176;SDS011;56478;50.982;7.032;2024-03-29T06:03:00;2.30;;;1.30;;
68176;SDS011;56478;50.982;7.032;2024-03-29T06:05:30;2.33;;;1.30;;
68176;SDS011;56478;50.982;7.032;2024-03-29T06:07:55;4.22;;;1.67;;
68176;SDS011;56478;50.982;7.032;2024-03-29T06:10:21;1.67;;;1.52;;
68176;SDS011;56478;50.982;7.032;2024-03-29T06:12:47;1.90;;;1.50;;
68176;SDS011;56478;50.982;7.032;2024-03-29T06:15:12;2.25;;;1.30;;
68176;SDS011;56478;50.982;7.032;2024-03-29T06:17:57;2.40;;;1.13;;
68176;SDS011;56478;50.982;7.032;2024-03-29T06:20:23;3.67;;;1.38;;
68176;SDS011;56478;50.982;7.032;2024-03-29T06:22:49;3.30;;;1.30;;
68176;SDS011;56478;50.982;7.032;2024-03-29T06:25:15;2.63;;;1.52;;
68176;SDS011;56478;50.982;7.032;2024-03-29T06:27:41;1.42;;;1.33;;
68176;SDS011;56478;50.982;7.032;2024-03-29T06:30:08;1.90;;;1.60;;
68176;SDS011;56478;50.982;7.032;2024-03-29T06:32:34;2.38;;;1.55;;
68176;SDS011;56478;50.982;7.032;2024-03-29T06:35:01;1.42;;;1.33;;
68176;SDS011;56478;50.982;7.032;2024-03-29T06:37:27;2.08;;;1.40;;
68176;SDS011;56478;50.982;7.032;2024-03-29T06:39:53;3.97;;;1.48;;
68176;SDS011;56478;50.982;7.032;2024-03-29T06:42:19;1.70;;;1.60;;
68176;SDS011;56478;50.982;7.032;2024-03-29T06:44:44;2.25;;;1.70;;
68176;SDS011;56478;50.982;7.032;2024-03-29T06:47:11;1.33;;;1.23;;
68176;SDS011;56478;50.982;7.032;2024-03-29T06:49:37;3.13;;;1.50;;
68176;SDS011;56478;50.982;7.032;2024-03-29T06:52:02;1.60;;;1.50;;
68176;SDS011;56478;50.982;7.032;2024-03-29T06:54:28;1.95;;;1.45;;
68176;SDS011;56478;50.982;7.032;2024-03-29T06:56:54;2.08;;;1.35;;
68176;SDS011;56478;50.982;7.032;2024-03-29T06:59:21;1.35;;;1.25;;
68176;SDS011;56478;50.982;7.032;2024-03-29T07:01:47;3.65;;;1.38;;
68176;SDS011;56478;50.982;7.032;2024-03-29T07:04:15;1.60;;;1.50;;
68176;SDS011;56478;50.982;7.032;2024-03-29T07:06:41;2.88;;;1.50;;
68176;SDS011;56478;50.982;7.032;2024-03-29T07:09:10;2.65;;;1.52;;
68176;SDS011;56478;50.982;7.032;2024-03-29T07:11:36;1.45;;;1.33;;
68176;SDS011;56478;50.982;7.032;2024-03-29T07:14:01;2.47;;;1.48;;
68176;SDS011;56478;50.982;7.032;2024-03-29T07:16:27;2.28;;;1.40;;
68176;SDS011;56478;50.982;7.032;2024-03-29T07:18:52;1.52;;;1.40;;
68176;SDS011;56478;50.982;7.032;2024-03-29T07:21:18;1.50;;;1.40;;
68176;SDS011;56478;50.982;7.032;2024-03-29T07:23:43;1.50;;;1.40;;
68176;SDS011;56478;50.982;7.032;2024-03-29T07:26:09;2.40;;;1.60;;
68176;SDS011;56478;50.982;7.032;2024-03-29T07:28:36;1.50;;;1.40;;
68176;SDS011;56478;50.982;7.032;2024-03-29T07:31:05;2.70;;;1.40;;
68176;SDS011;56478;50.982;7.032;2024-03-29T07:33:32;1.70;;;1.40;;
68176;SDS011;56478;50.982;7.032;2024-03-29T07:35:58;1.70;;;1.50;;
68176;SDS011;56478;50.982;7.032;2024-03-29T07:38:24;2.00;;;1.40;;
68176;SDS011;56478;50.982;7.032;2024-03-29T07:40:50;1.40;;;1.30;;
68176;SDS011;56478;50.982;7.032;2024-03-29T07:43:17;1.38;;;1.27;;
68176;SDS011;56478;50.982;7.032;2024-03-29T07:45:44;1.98;;;1.60;;
68176;SDS011;56478;50.982;7.032;2024-03-29T07:48:14;2.38;;;1.52;;
68176;SDS011;56478;50.982;7.032;2024-03-29T07:50:41;1.60;;;1.40;;
68176;SDS011;56478;50.982;7.032;2024-03-29T07:53:07;1.60;;;1.50;;
68176;SDS011;56478;50.982;7.032;2024-03-29T07:55:34;1.65;;;1.30;;
68176;SDS011;56478;50.982;7.032;2024-03-29T07:58:00;6.22;;;1.40;;
68176;SDS011;56478;50.982;7.032;2024-03-29T08:00:26;1.33;;;1.23;;
68176;SDS011;56478;50.982;7.032;2024-03-29T08:02:51;2.58;;;1.30;;
68176;SDS011;56478;50.982;7.032;2024-03-29T08:05:20;1.80;;;1.52;;
68176;SDS011;56478;50.982;7.032;2024-03-29T08:07:46;1.35;;;1.25;;
68176;SDS011;56478;50.982;7.032;2024-03-29T08:10:11;1.40;;;1.30;;
68176;SDS011;56478;50.982;7.032;2024-03-29T08:12:37;1.20;;;1.20;;
68176;SDS011;56478;50.982;7.032;2024-03-29T08:15:03;1.30;;;1.20;;
68176;SDS011;56478;50.982;7.032;2024-03-29T08:17:29;2.20;;;1.40;;
68176;SDS011;56478;50.982;7.032;2024-03-29T08:19:55;1.60;;;1.30;;
68176;SDS011;56478;50.982;7.032;2024-03-29T08:22:21;1.40;;;1.30;;
68176;SDS011;56478;50.982;7.032;2024-03-29T08:24:46;1.70;;;1.60;;
68176;SDS011;56478;50.982;7.032;2024-03-29T08:27:12;2.25;;;1.13;;
68176;SDS011;56478;50.982;7.032;2024-03-29T08:29:37;2.33;;;1.23;;
68176;SDS011;56478;50.982;7.032;2024-03-29T08:32:03;2.20;;;1.30;;
68176;SDS011;56478;50.982;7.032;2024-03-29T08:34:31;1.33;;;1.23;;
68176;SDS011;56478;50.982;7.032;2024-03-29T08:37:02;1.40;;;1.30;;
68176;SDS011;56478;50.982;7.032;2024-03-29T08:39:29;2.63;;;1.33;;
68176;SDS011;56478;50.982;7.032;2024-03-29T08:41:55;1.30;;;1.30;;
68176;SDS011;56478;50.982;7.032;2024-03-29T08:44:21;3.22;;;1.30;;
68176;SDS011;56478;50.982;7.032;2024-03-29T08:46:46;1.60;;;1.33;;
68176;SDS011;56478;50.982;7.032;2024-03-29T08:49:12;2.25;;;1.30;;
68176;SDS011;56478;50.982;7.032;2024-03-29T08:51:38;2.63;;;0.98;;
68176;SDS011;56478;50.982;7.032;2024-03-29T08:54:03;1.13;;;1.13;;
68176;SDS011;56478;50.982;7.032;2024-03-29T08:56:33;1.45;;;1.35;;
68176;SDS011;56478;50.982;7.032;2024-03-29T08:59:02;1.35;;;1.25;;
68176;SDS011;56478;50.982;7.032;2024-03-29T09:01:36;1.50;;;1.30;;
68176;SDS011;56478;50.982;7.032;2024-03-29T09:04:03;1.95;;;1.30;;
68176;SDS011;56478;50.982;7.032;2024-03-29T09:06:32;1.38;;;1.27;;
68176;SDS011;56478;50.982;7.032;2024-03-29T09:08:58;1.23;;;1.10;;
68176;SDS011;56478;50.982;7.032;2024-03-29T09:11:24;1.10;;;1.10;;
68176;SDS011;56478;50.982;7.032;2024-03-29T09:13:50;1.23;;;1.15;;
68176;SDS011;56478;50.982;7.032;2024-03-29T09:16:15;1.33;;;1.23;;
68176;SDS011;56478;50.982;7.032;2024-03-29T09:18:41;1.75;;;1.50;;
68176;SDS011;56478;50.982;7.032;2024-03-29T09:21:07;1.42;;;1.30;;
68176;SDS011;56478;50.982;7.032;2024-03-29T09:23:34;1.35;;;1.25;;
68176;SDS011;56478;50.982;7.032;2024-03-29T09:25:59;1.95;;;1.20;;
68176;SDS011;56478;50.982;7.032;2024-03-29T09:28:29;1.25;;;1.15;;
68176;SDS011;56478;50.982;7.032;2024-03-29T09:30:57;1.30;;;1.30;;
68176;SDS011;56478;50.982;7.032;2024-03-29T09:33:24;2.38;;;1.20;;
68176;SDS011;56478;50.982;7.032;2024-03-29T09:35:49;1.00;;;1.00;;
68176;SDS011;56478;50.982;7.032;2024-03-29T09:38:15;1.38;;;1.25;;
68176;SDS011;56478;50.982;7.032;2024-03-29T09:40:41;0.98;;;0.98;;
68176;SDS011;56478;50.982;7.032;2024-03-29T09:43:07;1.85;;;1.00;;
68176;SDS011;56478;50.982;7.032;2024-03-29T09:45:35;1.35;;;1.25;;
68176;SDS011;56478;50.982;7.032;2024-03-29T09:48:04;1.10;;;1.05;;
68176;SDS011;56478;50.982;7.032;2024-03-29T09:50:32;1.10;;;1.10;;
68176;SDS011;56478;50.982;7.032;2024-03-29T09:53:01;1.00;;;1.00;;
68176;SDS011;56478;50.982;7.032;2024-03-29T09:55:27;0.98;;;0.98;;
68176;SDS011;56478;50.982;7.032;2024-03-29T09:57:54;1.15;;;1.10;;
68176;SDS011;56478;50.982;7.032;2024-03-29T10:00:20;1.00;;;1.00;;
68176;SDS011;56478;50.982;7.032;2024-03-29T10:02:46;2.47;;;1.00;;
68176;SDS011;56478;50.982;7.032;2024-03-29T10:05:14;1.10;;;0.90;;
68176;SDS011;56478;50.982;7.032;2024-03-29T10:07:42;1.00;;;1.00;;
68176;SDS011;56478;50.982;7.032;2024-03-29T10:10:10;1.00;;;1.00;;
68176;SDS011;56478;50.982;7.032;2024-03-29T10:12:36;2.58;;;1.10;;
68176;SDS011;56478;50.982;7.032;2024-03-29T10:15:03;1.30;;;1.10;;
68176;SDS011;56478;50.982;7.032;2024-03-29T10:17:40;1.20;;;1.13;;
68176;SDS011;56478;50.982;7.032;2024-03-29T10:20:11;0.93;;;0.93;;
68176;SDS011;56478;50.982;7.032;2024-03-29T10:22:43;0.80;;;0.80;;
68176;SDS011;56478;50.982;7.032;2024-03-29T10:25:10;0.82;;;0.82;;
68176;SDS011;56478;50.982;7.032;2024-03-29T10:27:36;1.10;;;0.90;;
68176;SDS011;56478;50.982;7.032;2024-03-29T10:30:02;1.00;;;1.00;;
68176;SDS011;56478;50.982;7.032;2024-03-29T10:32:29;0.98;;;0.98;;
68176;SDS011;56478;50.982;7.032;2024-03-29T10:34:55;1.20;;;1.10;;
68176;SDS011;56478;50.982;7.032;2024-03-29T10:37:21;1.23;;;1.00;;
68176;SDS011;56478;50.982;7.032;2024-03-29T10:39:52;1.15;;;1.05;;
68176;SDS011;56478;50.982;7.032;2024-03-29T10:42:18;1.30;;;1.00;;
68176;SDS011;56478;50.982;7.032;2024-03-29T10:44:46;1.58;;;1.17;;
68176;SDS011;56478;50.982;7.032;2024-03-29T10:47:16;0.95;;;0.95;;
68176;SDS011;56478;50.982;7.032;2024-03-29T10:49:54;1.35;;;1.00;;
68176;SDS011;56478;50.982;7.032;2024-03-29T10:52:23;1.58;;;1.48;;
68176;SDS011;56478;50.982;7.032;2024-03-29T10:54:50;1.40;;;1.30;;
68176;SDS011;56478;50.982;7.032;2024-03-29T10:57:20;1.30;;;1.20;;
68176;SDS011;56478;50.982;7.032;2024-03-29T11:00:08;1.23;;;1.10;;
68176;SDS011;56478;50.982;7.032;2024-03-29T11:02:41;2.10;;;1.15;;
68176;SDS011;56478;50.982;7.032;2024-03-29T11:05:09;1.23;;;1.13;;
68176;SDS011;56478;50.982;7.032;2024-03-29T11:07:38;1.02;;;0.98;;
68176;SDS011;56478;50.982;7.032;2024-03-29T11:10:15;2.20;;;1.08;;
68176;SDS011;56478;50.982;7.032;2024-03-29T11:13:01;1.70;;;1.30;;
68176;SDS011;56478;50.982;7.032;2024-03-29T11:15:37;1.33;;;1.20;;
68176;SDS011;56478;50.982;7.032;2024-03-29T11:18:05;1.40;;;1.30;;
68176;SDS011;56478;50.982;7.032;2024-03-29T11:20:34;1.33;;;1.23;;
68176;SDS011;56478;50.982;7.032;2024-03-29T11:23:06;2.90;;;1.30;;
68176;SDS011;56478;50.982;7.032;2024-03-29T11:28:32;2.10;;;1.20;;
68176;SDS011;56478;50.982;7.032;2024-03-29T11:31:00;2.05;;;1.20;;
68176;SDS011;56478;50.982;7.032;2024-03-29T11:33:33;1.20;;;1.20;;
68176;SDS011;56478;50.982;7.032;2024-03-29T11:38:52;2.60;;;1.88;;
68176;SDS011;56478;50.982;7.032;2024-03-29T11:41:22;1.20;;;1.20;;
68176;SDS011;56478;50.982;7.032;2024-03-29T11:43:49;1.35;;;1.20;;
68176;SDS011;56478;50.982;7.032;2024-03-29T11:46:16;2.58;;;1.30;;
68176;SDS011;56478;50.982;7.032;2024-03-29T11:48:43;2.20;;;1.23;;
68176;SDS011;56478;50.982;7.032;2024-03-29T11:51:15;1.40;;;1.30;;
68176;SDS011;56478;50.982;7.032;2024-03-29T11:53:42;1.30;;;1.20;;
68176;SDS011;56478;50.982;7.032;2024-03-29T11:56:08;0.80;;;0.80;;
68176;SDS011;56478;50.982;7.032;2024-03-29T11:58:36;1.02;;;1.00;;
68176;SDS011;56478;50.982;7.032;2024-03-29T12:01:04;0.85;;;0.85;;
68176;SDS011;56478;50.982;7.032;2024-03-29T12:03:31;0.90;;;0.90;;
68176;SDS011;56478;50.982;7.032;2024-03-29T12:05:58;0.98;;;0.98;;
68176;SDS011;56478;50.982;7.032;2024-03-29T12:08:31;1.02;;;0.63;;
68176;SDS011;56478;50.982;7.032;2024-03-29T12:10:58;1.52;;;0.70;;
68176;SDS011;56478;50.982;7.032;2024-03-29T12:13:25;0.70;;;0.70;;
68176;SDS011;56478;50.982;7.032;2024-03-29T12:15:51;0.90;;;0.90;;
68176;SDS011;56478;50.982;7.032;2024-03-29T12:18:18;0.70;;;0.70;;
68176;SDS011;56478;50.982;7.032;2024-03-29T12:20:45;0.63;;;0.63;;
68176;SDS011;56478;50.982;7.032;2024-03-29T12:23:20;0.80;;;0.80;;
68176;SDS011;56478;50.982;7.032;2024-03-29T12:25:47;0.80;;;0.77;;
68176;SDS011;56478;50.982;7.032;2024-03-29T12:28:14;1.00;;;1.00;;
68176;SDS011;56478;50.982;7.032;2024-03-29T12:30:42;0.70;;;0.70;;
68176;SDS011;56478;50.982;7.032;2024-03-29T12:33:11;0.80;;;0.80;;
68176;SDS011;56478;50.982;7.032;2024-03-29T12:35:41;0.82;;;0.73;;
68176;SDS011;56478;50.982;7.032;2024-03-29T12:38:11;0.88;;;0.88;;
68176;SDS011;56478;50.982;7.032;2024-03-29T12:40:41;0.75;;;0.75;;
68176;SDS011;56478;50.982;7.032;2024-03-29T12:43:08;0.88;;;0.88;;
68176;SDS011;56478;50.982;7.032;2024-03-29T12:45:35;0.70;;;0.70;;
68176;SDS011;56478;50.982;7.032;2024-03-29T12:48:02;0.60;;;0.60;;
68176;SDS011;56478;50.982;7.032;2024-03-29T12:50:28;0.80;;;0.80;;
68176;SDS011;56478;50.982;7.032;2024-03-29T12:52:56;1.17;;;0.80;;
68176;SDS011;56478;50.982;7.032;2024-03-29T12:55:24;0.60;;;0.60;;
68176;SDS011;56478;50.982;7.032;2024-03-29T12:57:53;0.80;;;0.80;;
68176;SDS011;56478;50.982;7.032;2024-03-29T13:00:19;0.80;;;0.80;;
68176;SDS011;56478;50.982;7.032;2024-03-29T13:02:45;1.00;;;1.00;;
68176;SDS011;56478;50.982;7.032;2024-03-29T13:05:11;0.90;;;0.90;;
68176;SDS011;56478;50.982;7.032;2024-03-29T13:07:36;1.48;;;1.15;;
68176;SDS011;56478;50.982;7.032;2024-03-29T13:10:02;1.00;;;1.00;;
68176;SDS011;56478;50.982;7.032;2024-03-29T13:12:35;1.67;;;1.15;;
68176;SDS011;56478;50.982;7.032;2024-03-29T13:15:02;1.00;;;1.00;;
68176;SDS011;56478;50.982;7.032;2024-03-29T13:17:31;0.70;;;0.70;;
68176;SDS011;56478;50.982;7.032;2024-03-29T13:19:57;0.93;;;0.93;;
68176;SDS011;56478;50.982;7.032;2024-03-29T13:22:22;1.05;;;1.00;;
68176;SDS011;56478;50.982;7.032;2024-03-29T13:24:48;0.80;;;0.80;;
68176;SDS011;56478;50.982;7.032;2024-03-29T13:27:15;0.65;;;0.65;;
68176;SDS011;56478;50.982;7.032;2024-03-29T13:29:41;0.90;;;0.90;;
68176;SDS011;56478;50.982;7.032;2024-03-29T13:32:07;0.70;;;0.70;;
68176;SDS011;56478;50.982;7.032;2024-03-29T13:34:33;0.75;;;0.75;;
68176;SDS011;56478;50.982;7.032;2024-03-29T13:36:59;0.90;;;0.90;;
68176;SDS011;56478;50.982;7.032;2024-03-29T13:39:24;1.20;;;1.10;;
68176;SDS011;56478;50.982;7.032;2024-03-29T13:41:50;1.10;;;1.10;;
68176;SDS011;56478;50.982;7.032;2024-03-29T13:44:18;1.45;;;1.35;;
68176;SDS011;56478;50.982;7.032;2024-03-29T13:46:44;1.50;;;1.40;;
68176;SDS011;56478;50.982;7.032;2024-03-29T13:49:09;1.50;;;1.40;;
68176;SDS011;56478;50.982;7.032;2024-03-29T13:51:37;0.90;;;0.90;;
68176;SDS011;56478;50.982;7.032;2024-03-29T13:54:03;1.00;;;1.00;;
68176;SDS011;56478;50.982;7.032;2024-03-29T13:56:28;0.88;;;0.88;;
68176;SDS011;56478;50.982;7.032;2024-03-29T13:58:54;1.25;;;0.88;;
68176;SDS011;56478;50.982;7.032;2024-03-29T14:01:20;0.80;;;0.80;;
68176;SDS011;56478;50.982;7.032;2024-03-29T14:03:45;0.88;;;0.88;;
68176;SDS011;56478;50.982;7.032;2024-03-29T14:06:11;0.98;;;0.70;;
68176;SDS011;56478;50.982;7.032;2024-03-29T14:08:37;0.68;;;0.68;;
68176;SDS011;56478;50.982;7.032;2024-03-29T14:11:03;0.75;;;0.75;;
68176;SDS011;56478;50.982;7.032;2024-03-29T14:13:28;0.80;;;0.80;;
68176;SDS011;56478;50.982;7.032;2024-03-29T14:15:54;0.90;;;0.90;;
68176;SDS011;56478;50.982;7.032;2024-03-29T14:18:20;0.80;;;0.80;;
68176;SDS011;56478;50.982;7.032;2024-03-29T14:20:47;0.80;;;0.80;;
68176;SDS011;56478;50.982;7.032;2024-03-29T14:23:12;0.80;;;0.80;;
68176;SDS011;56478;50.982;7.032;2024-03-29T14:25:41;1.40;;;0.88;;
68176;SDS011;56478;50.982;7.032;2024-03-29T14:28:07;1.65;;;0.82;;
68176;SDS011;56478;50.982;7.032;2024-03-29T14:30:34;0.90;;;0.90;;
68176;SDS011;56478;50.982;7.032;2024-03-29T14:32:59;0.90;;;0.90;;
68176;SDS011;56478;50.982;7.032;2024-03-29T14:35:31;1.00;;;0.88;;
68176;SDS011;56478;50.982;7.032;2024-03-29T14:37:57;0.70;;;0.70;;
68176;SDS011;56478;50.982;7.032;2024-03-29T14:40:24;1.13;;;0.75;;
68176;SDS011;56478;50.982;7.032;2024-03-29T14:42:51;0.77;;;0.77;;
68176;SDS011;56478;50.982;7.032;2024-03-29T14:45:19;0.85;;;0.85;;
68176;SDS011;56478;50.982;7.032;2024-03-29T14:47:44;0.85;;;0.85;;
68176;SDS011;56478;50.982;7.032;2024-03-29T14:50:10;1.13;;;1.02;;
68176;SDS011;56478;50.982;7.032;2024-03-29T14:52:36;1.40;;;1.40;;
68176;SDS011;56478;50.982;7.032;2024-03-29T14:55:02;1.20;;;1.20;;